TAF KSWO
KSWO 280520Z 2806/2906 35010KT P6SM SKC FM282200 18005KT P6SM SKC=
METAR KSWO
WC KSWO
WS KSWO
WV KSWO